createdAt,value
2023-05-03T00:01:17.524Z,12.09
2023-05-03T00:03:45.984Z,12.05
2023-05-03T00:06:16.814Z,12.03
2023-05-03T00:08:51.566Z,11.96
2023-05-03T00:11:18.832Z,11.94
2023-05-03T00:13:48.382Z,11.90
2023-05-03T00:16:15.877Z,11.89
2023-05-03T00:18:43.280Z,11.89
2023-05-03T00:21:10.837Z,11.89
2023-05-03T00:23:38.289Z,11.85
2023-05-03T00:26:05.707Z,11.83
2023-05-03T00:28:34.218Z,11.82
2023-05-03T00:31:11.461Z,11.85
2023-05-03T00:33:39.831Z,11.80
2023-05-03T00:36:15.164Z,11.79
2023-05-03T00:38:42.970Z,11.76
2023-05-03T00:41:11.512Z,11.74
2023-05-03T00:43:39.510Z,11.74
2023-05-03T00:46:16.614Z,11.74
2023-05-03T00:48:45.925Z,11.71
2023-05-03T00:51:16.053Z,11.69
2023-05-03T00:53:44.332Z,11.65
2023-05-03T00:56:12.300Z,11.66
2023-05-03T00:58:40.877Z,11.62
2023-05-03T01:01:10.310Z,11.62
2023-05-03T01:03:41.655Z,11.60
2023-05-03T01:06:21.277Z,11.56
2023-05-03T01:09:00.867Z,11.58
2023-05-03T01:11:48.160Z,11.57
2023-05-03T01:14:41.350Z,11.53
2023-05-03T01:17:12.814Z,11.59
2023-05-03T01:19:44.795Z,11.58
2023-05-03T01:22:22.851Z,11.54
2023-05-03T01:25:00.307Z,11.54
2023-05-03T01:27:27.662Z,11.53
2023-05-03T01:29:55.483Z,11.53
2023-05-03T01:32:33.054Z,11.52
2023-05-03T01:35:12.980Z,11.49
2023-05-03T01:37:41.701Z,11.48
2023-05-03T01:40:11.590Z,11.43
2023-05-03T01:42:39.785Z,11.42
2023-05-03T01:45:08.490Z,11.46
2023-05-03T01:47:36.294Z,11.49
2023-05-03T01:50:10.875Z,11.44
2023-05-03T01:52:38.596Z,11.42
2023-05-03T01:55:06.683Z,11.44
2023-05-03T01:57:34.050Z,11.43
2023-05-03T02:00:01.753Z,11.43
2023-05-03T02:02:29.207Z,11.45
2023-05-03T02:04:56.553Z,11.42
2023-05-03T02:07:30.036Z,11.42
2023-05-03T02:10:03.939Z,11.36
2023-05-03T02:12:32.623Z,11.37
2023-05-03T02:15:00.083Z,11.35
2023-05-03T02:17:29.287Z,11.30
2023-05-03T02:19:57.625Z,11.24
2023-05-03T02:22:25.774Z,11.22
2023-05-03T02:24:53.084Z,11.14
2023-05-03T02:27:20.402Z,11.14
2023-05-03T02:29:47.905Z,11.12
2023-05-03T02:32:15.381Z,11.08
2023-05-03T02:34:45.479Z,11.05
2023-05-03T02:37:18.982Z,11.02
2023-05-03T02:39:46.552Z,11.00
2023-05-03T02:42:13.968Z,10.94
2023-05-03T02:44:43.349Z,10.92
2023-05-03T02:47:17.046Z,10.88
2023-05-03T02:49:44.256Z,10.84
2023-05-03T02:52:11.601Z,10.78
2023-05-03T02:54:46.781Z,10.81
2023-05-03T02:57:16.447Z,10.79
2023-05-03T02:59:44.023Z,10.76
2023-05-03T03:02:11.152Z,10.73
2023-05-03T03:04:39.452Z,10.73
2023-05-03T03:07:06.886Z,10.70
2023-05-03T03:09:34.475Z,10.68
2023-05-03T03:12:05.677Z,10.63
2023-05-03T03:14:32.850Z,10.57
2023-05-03T03:17:02.379Z,10.54
2023-05-03T03:19:29.718Z,10.51
2023-05-03T03:21:57.237Z,10.53
2023-05-03T03:24:25.170Z,10.50
2023-05-03T03:26:52.697Z,10.43
2023-05-03T03:29:20.089Z,10.33
2023-05-03T03:31:47.617Z,10.26
2023-05-03T03:34:23.943Z,10.23
2023-05-03T03:36:51.254Z,10.23
2023-05-03T03:39:19.675Z,10.21
2023-05-03T03:41:47.337Z,10.17
2023-05-03T03:44:15.725Z,10.17
2023-05-03T03:46:43.074Z,10.20
2023-05-03T03:49:10.615Z,10.22
2023-05-03T03:51:40.022Z,10.21
2023-05-03T03:54:07.560Z,10.16
2023-05-03T03:56:34.980Z,10.14
2023-05-03T03:59:02.567Z,10.12
2023-05-03T04:01:31.046Z,10.10
2023-05-03T04:03:58.498Z,10.12
2023-05-03T04:06:27.282Z,10.08
2023-05-03T04:08:54.840Z,10.10
2023-05-03T04:11:22.392Z,10.06
2023-05-03T04:13:49.845Z,9.98
2023-05-03T04:16:19.541Z,9.90
2023-05-03T04:18:46.770Z,9.85
2023-05-03T04:21:14.182Z,9.87
2023-05-03T04:23:42.887Z,9.84
2023-05-03T04:26:23.504Z,9.85
2023-05-03T04:28:58.514Z,9.91
2023-05-03T04:31:26.155Z,9.85
2023-05-03T04:33:54.505Z,9.84
2023-05-03T04:36:26.084Z,9.83
2023-05-03T04:38:53.517Z,9.75
2023-05-03T04:41:22.506Z,9.78
2023-05-03T04:43:51.702Z,9.78
2023-05-03T04:46:19.004Z,9.71
2023-05-03T04:48:47.515Z,9.69
2023-05-03T04:51:15.929Z,9.69
2023-05-03T04:53:45.434Z,9.58
2023-05-03T04:56:12.913Z,9.61
2023-05-03T04:58:40.399Z,9.55
2023-05-03T05:01:07.871Z,9.56
2023-05-03T05:03:36.548Z,9.44
2023-05-03T05:06:07.260Z,9.46
2023-05-03T05:08:34.874Z,9.33
2023-05-03T05:11:06.050Z,9.28
2023-05-03T05:13:35.938Z,9.43
2023-05-03T05:16:04.130Z,9.42
2023-05-03T05:18:31.526Z,9.41
2023-05-03T05:21:00.952Z,9.45
2023-05-03T05:23:28.317Z,9.55
2023-05-03T05:26:00.894Z,9.53
2023-05-03T05:28:29.120Z,9.51
2023-05-03T05:30:56.726Z,9.49
2023-05-03T05:33:24.703Z,9.50
2023-05-03T05:35:52.295Z,9.51
2023-05-03T05:38:19.641Z,9.57
2023-05-03T05:40:47.119Z,9.56
2023-05-03T05:43:14.586Z,9.57
2023-05-03T05:45:42.437Z,9.49
2023-05-03T05:48:10.044Z,9.53
2023-05-03T05:50:37.518Z,9.44
2023-05-03T05:53:04.908Z,9.43
2023-05-03T05:55:34.553Z,9.40
2023-05-03T05:58:02.081Z,9.32
2023-05-03T06:00:30.657Z,9.21
2023-05-03T06:02:57.820Z,9.02
2023-05-03T06:05:25.854Z,9.05
2023-05-03T06:07:53.373Z,9.05
2023-05-03T06:10:20.904Z,9.08
2023-05-03T06:12:48.612Z,9.14
2023-05-03T06:15:15.887Z,9.18
2023-05-03T06:17:43.650Z,9.37
2023-05-03T06:20:12.325Z,9.51
2023-05-03T06:22:39.685Z,9.68
2023-05-03T06:25:10.813Z,9.93
2023-05-03T06:27:38.748Z,10.20
2023-05-03T06:30:06.798Z,10.40
2023-05-03T06:32:35.191Z,10.45
2023-05-03T06:35:02.583Z,10.76
2023-05-03T06:37:30.008Z,11.01
2023-05-03T06:39:58.505Z,11.02
2023-05-03T06:42:26.007Z,11.15
2023-05-03T06:44:53.418Z,11.34
2023-05-03T06:47:21.863Z,11.41
2023-05-03T06:49:49.341Z,11.53
2023-05-03T06:52:17.051Z,11.56
2023-05-03T06:54:44.786Z,11.57
2023-05-03T06:57:12.672Z,11.67
2023-05-03T06:59:41.434Z,11.76
2023-05-03T07:02:08.458Z,11.87
2023-05-03T07:04:40.077Z,11.94
2023-05-03T07:07:07.987Z,12.02
2023-05-03T07:09:43.306Z,12.14
2023-05-03T07:12:11.644Z,11.96
2023-05-03T07:14:40.079Z,11.88
2023-05-03T07:17:07.630Z,11.96
2023-05-03T07:19:35.548Z,12.01
2023-05-03T07:22:03.615Z,12.19
2023-05-03T07:24:31.223Z,12.03
2023-05-03T07:26:59.368Z,12.02
2023-05-03T07:29:27.914Z,11.74
2023-05-03T07:31:55.487Z,11.69
2023-05-03T07:34:23.077Z,11.78
2023-05-03T07:36:50.459Z,11.81
2023-05-03T07:39:19.590Z,11.76
2023-05-03T07:41:49.422Z,12.07
2023-05-03T07:44:16.972Z,12.26
2023-05-03T07:46:44.404Z,12.34
2023-05-03T07:49:11.937Z,12.39
2023-05-03T07:51:40.611Z,12.26
2023-05-03T07:54:07.919Z,12.32
2023-05-03T07:56:35.295Z,12.72
2023-05-03T08:01:34.212Z,12.78
2023-05-03T08:04:01.966Z,13.00
2023-05-03T08:06:29.844Z,13.17
2023-05-03T08:08:57.226Z,13.37
2023-05-03T08:11:31.145Z,13.55
2023-05-03T08:13:58.765Z,13.48
2023-05-03T08:16:26.527Z,13.50
2023-05-03T08:18:54.138Z,13.80
2023-05-03T08:21:22.408Z,14.08
2023-05-03T08:23:50.198Z,14.17
2023-05-03T08:26:24.570Z,14.08
2023-05-03T08:28:52.719Z,13.62
2023-05-03T08:31:20.352Z,13.39
2023-05-03T08:33:48.773Z,13.10
2023-05-03T08:36:17.213Z,12.70
2023-05-03T08:38:44.622Z,12.67
2023-05-03T08:41:21.742Z,13.16
2023-05-03T08:43:54.467Z,13.75
2023-05-03T08:46:22.304Z,13.89
2023-05-03T08:48:53.052Z,13.51
2023-05-03T08:51:22.239Z,13.64
2023-05-03T08:53:53.044Z,13.98
2023-05-03T08:56:33.878Z,14.26
2023-05-03T08:59:08.106Z,14.35
2023-05-03T09:01:40.816Z,14.69
2023-05-03T09:04:09.950Z,14.93
2023-05-03T09:06:43.722Z,15.09
2023-05-03T09:09:11.350Z,15.13
2023-05-03T09:11:39.414Z,14.92
2023-05-03T09:14:17.276Z,14.56
2023-05-03T09:16:46.966Z,14.13
2023-05-03T09:19:16.079Z,13.77
2023-05-03T09:21:47.597Z,13.72
2023-05-03T09:24:17.228Z,13.77
2023-05-03T09:26:46.953Z,13.90
2023-05-03T09:29:36.296Z,13.84
2023-05-03T09:32:09.061Z,13.80
2023-05-03T09:34:37.347Z,13.94
2023-05-03T09:37:05.806Z,14.08
2023-05-03T09:39:33.869Z,14.29
2023-05-03T09:42:17.847Z,14.45
2023-05-03T09:44:44.812Z,14.62
2023-05-03T09:47:12.613Z,14.79
2023-05-03T09:49:47.116Z,14.97
2023-05-03T09:52:14.623Z,14.91
2023-05-03T09:54:48.887Z,14.95
2023-05-03T09:57:16.201Z,14.59
2023-05-03T09:59:46.407Z,14.53
2023-05-03T10:02:13.653Z,14.53
2023-05-03T10:04:48.626Z,14.62
2023-05-03T10:07:22.938Z,14.82
2023-05-03T10:09:50.461Z,14.90
2023-05-03T10:12:20.653Z,15.10
2023-05-03T10:14:49.163Z,15.20
2023-05-03T10:17:47.233Z,15.15
2023-05-03T10:20:52.250Z,15.29
2023-05-03T10:23:19.577Z,15.13
2023-05-03T10:26:13.745Z,15.12
2023-05-03T10:28:41.976Z,15.01
2023-05-03T10:31:48.455Z,15.13
2023-05-03T10:34:26.215Z,15.23
2023-05-03T10:36:54.405Z,15.24
2023-05-03T10:39:22.897Z,15.31
2023-05-03T10:42:16.158Z,15.48
2023-05-03T10:44:54.120Z,15.64
2023-05-03T10:47:23.850Z,15.76
2023-05-03T10:50:14.152Z,15.81
2023-05-03T10:52:41.436Z,16.17
2023-05-03T10:55:21.380Z,16.35
2023-05-03T10:57:49.694Z,16.58
2023-05-03T11:00:23.856Z,16.86
2023-05-03T11:03:15.321Z,17.08
2023-05-03T11:05:43.074Z,17.36
2023-05-03T11:08:21.151Z,17.58
2023-05-03T11:10:57.462Z,17.48
2023-05-03T11:13:26.366Z,17.11
2023-05-03T11:15:55.393Z,17.14
2023-05-03T11:18:26.395Z,17.26
2023-05-03T11:20:54.259Z,17.44
2023-05-03T11:23:27.762Z,17.51
2023-05-03T11:25:56.925Z,17.45
2023-05-03T11:28:26.548Z,17.53
2023-05-03T11:30:55.142Z,17.51
2023-05-03T11:33:22.339Z,17.30
2023-05-03T11:35:50.954Z,17.18
2023-05-03T11:38:18.203Z,17.24
2023-05-03T11:40:47.631Z,17.45
2023-05-03T11:43:15.233Z,17.59
2023-05-03T11:45:47.321Z,17.56
2023-05-03T11:48:17.163Z,17.66
2023-05-03T11:50:54.717Z,17.68
2023-05-03T11:53:26.664Z,17.64
2023-05-03T11:55:55.058Z,17.51
2023-05-03T11:58:28.092Z,17.51
2023-05-03T12:00:57.844Z,17.57
2023-05-03T12:03:32.237Z,17.51
2023-05-03T12:06:02.160Z,17.52
2023-05-03T12:08:35.421Z,17.59
2023-05-03T12:11:06.498Z,17.62
2023-05-03T12:13:44.274Z,17.61
2023-05-03T12:16:14.782Z,17.48
2023-05-03T12:18:55.695Z,17.15
2023-05-03T12:23:57.350Z,16.86
2023-05-03T12:26:26.674Z,16.22
2023-05-03T12:28:55.939Z,16.40
2023-05-03T12:31:24.879Z,16.23
2023-05-03T12:36:26.221Z,16.18
2023-05-03T12:38:56.530Z,15.93
2023-05-03T12:42:04.797Z,16.27
2023-05-03T12:44:17.237Z,16.68
2023-05-03T12:46:46.209Z,16.56
2023-05-03T12:49:15.522Z,16.63
2023-05-03T12:51:43.360Z,16.95
2023-05-03T12:54:12.101Z,17.25
2023-05-03T12:56:40.733Z,17.57
2023-05-03T12:59:39.238Z,17.80
2023-05-03T13:07:00.226Z,17.40
2023-05-03T13:09:37.865Z,17.56
2023-05-03T13:12:15.875Z,17.98
2023-05-03T13:14:45.398Z,18.27
2023-05-03T13:17:13.794Z,18.37
2023-05-03T13:19:48.089Z,18.56
2023-05-03T13:22:16.272Z,18.40
2023-05-03T13:24:48.038Z,18.59
2023-05-03T13:27:18.326Z,18.68
2023-05-03T13:29:47.533Z,18.62
2023-05-03T13:32:17.229Z,17.86
2023-05-03T13:34:44.967Z,17.50
2023-05-03T13:37:14.394Z,17.41
2023-05-03T13:39:41.510Z,17.47
2023-05-03T13:42:10.123Z,17.27
2023-05-03T13:44:37.462Z,17.09
2023-05-03T13:47:05.207Z,17.06
2023-05-03T13:49:32.409Z,17.22
2023-05-03T13:51:59.731Z,17.23
2023-05-03T13:54:27.262Z,17.63
2023-05-03T13:56:54.676Z,17.70
2023-05-03T13:59:22.307Z,17.84
2023-05-03T14:02:03.153Z,18.31
2023-05-03T14:04:31.969Z,18.39
2023-05-03T14:07:03.233Z,19.11
2023-05-03T14:09:31.335Z,19.23
2023-05-03T14:11:58.874Z,19.26
2023-05-03T14:14:36.980Z,18.97
2023-05-03T14:17:04.750Z,18.86
2023-05-03T14:19:36.564Z,18.70
2023-05-03T14:22:04.741Z,18.69
2023-05-03T14:24:38.240Z,18.83
2023-05-03T14:27:05.584Z,19.58
2023-05-03T14:29:33.171Z,20.37
2023-05-03T14:32:01.417Z,21.04
2023-05-03T14:34:29.375Z,21.80
2023-05-03T14:36:56.906Z,21.70
2023-05-03T14:39:24.895Z,21.49
2023-05-03T14:41:52.624Z,20.58
2023-05-03T14:44:21.046Z,19.29
2023-05-03T14:46:48.344Z,19.58
2023-05-03T14:49:17.972Z,19.12
2023-05-03T14:51:46.291Z,19.02
2023-05-03T14:54:13.827Z,19.66
2023-05-03T14:56:41.404Z,20.33
2023-05-03T14:59:14.817Z,20.72
2023-05-03T15:01:42.282Z,20.92
2023-05-03T15:04:10.866Z,21.21
2023-05-03T15:06:39.821Z,21.65
2023-05-03T15:09:08.948Z,21.97
2023-05-03T15:11:36.211Z,22.40
2023-05-03T15:14:03.925Z,22.93
2023-05-03T15:16:31.195Z,23.44
2023-05-03T15:18:58.651Z,23.76
2023-05-03T15:21:27.303Z,23.38
2023-05-03T15:23:55.377Z,23.25
2023-05-03T15:26:22.913Z,22.63
2023-05-03T15:28:50.432Z,22.49
2023-05-03T15:31:17.966Z,22.75
2023-05-03T15:33:45.927Z,22.29
2023-05-03T15:36:17.068Z,21.24
2023-05-03T15:38:44.445Z,20.60
2023-05-03T15:41:11.901Z,20.35
2023-05-03T15:43:41.467Z,20.85
2023-05-03T15:46:09.124Z,21.39
2023-05-03T15:48:38.797Z,21.92
2023-05-03T15:51:06.472Z,22.42
2023-05-03T15:53:33.890Z,21.91
2023-05-03T15:56:02.805Z,21.80
2023-05-03T15:58:31.518Z,21.61
2023-05-03T16:00:59.580Z,22.32
2023-05-03T16:03:30.044Z,22.52
2023-05-03T16:06:03.548Z,22.55
2023-05-03T16:08:31.012Z,22.20
2023-05-03T16:11:01.425Z,21.73
2023-05-03T16:13:31.006Z,21.30
2023-05-03T16:16:02.938Z,21.23
2023-05-03T16:18:32.327Z,20.52
2023-05-03T16:21:01.721Z,20.11
2023-05-03T16:23:31.216Z,19.88
2023-05-03T16:26:00.612Z,19.73
2023-05-03T16:28:28.101Z,19.61
2023-05-03T16:30:57.527Z,19.31
2023-05-03T16:33:25.130Z,19.27
2023-05-03T16:35:53.485Z,19.26
2023-05-03T16:38:21.278Z,18.83
2023-05-03T16:40:49.944Z,18.42
2023-05-03T16:43:19.449Z,18.37
2023-05-03T16:45:56.340Z,18.29
2023-05-03T16:48:24.126Z,18.22
2023-05-03T16:50:51.507Z,18.04
2023-05-03T16:53:19.260Z,18.01
2023-05-03T16:55:53.481Z,17.93
2023-05-03T16:58:20.624Z,17.85
2023-05-03T17:00:48.333Z,17.74
2023-05-03T17:03:17.785Z,17.66
2023-05-03T17:05:45.057Z,17.56
2023-05-03T17:08:12.615Z,17.51
2023-05-03T17:10:39.849Z,17.55
2023-05-03T17:13:09.642Z,17.61
2023-05-03T17:15:37.889Z,17.68
2023-05-03T17:18:05.717Z,17.56
2023-05-03T17:20:35.064Z,17.48
2023-05-03T17:23:06.103Z,17.48
2023-05-03T17:25:33.752Z,17.39
2023-05-03T17:28:01.657Z,17.39
2023-05-03T17:30:30.947Z,17.37
2023-05-03T17:32:59.472Z,17.38
2023-05-03T17:35:27.002Z,17.40
2023-05-03T17:37:54.202Z,17.43
2023-05-03T17:40:21.867Z,17.43
2023-05-03T17:42:49.327Z,17.27
2023-05-03T17:45:16.776Z,17.18
2023-05-03T17:47:45.100Z,17.02
2023-05-03T17:50:13.668Z,17.01
2023-05-03T17:52:41.989Z,16.92
2023-05-03T17:55:10.013Z,16.79
2023-05-03T17:57:37.749Z,16.65
2023-05-03T18:00:07.512Z,16.46
2023-05-03T18:02:35.288Z,16.28
2023-05-03T18:05:03.608Z,16.16
2023-05-03T18:07:31.044Z,15.90
2023-05-03T18:10:02.108Z,15.85
2023-05-03T18:12:30.858Z,15.60
2023-05-03T18:15:02.396Z,15.39
2023-05-03T18:17:30.184Z,15.32
2023-05-03T18:19:57.457Z,15.25
2023-05-03T18:22:27.926Z,14.97
2023-05-03T18:24:55.671Z,14.87
2023-05-03T18:27:23.408Z,14.74
2023-05-03T18:29:51.819Z,14.72
2023-05-03T18:32:19.912Z,14.63
2023-05-03T18:34:47.904Z,14.54
2023-05-03T18:37:15.789Z,14.42
2023-05-03T18:39:45.355Z,14.29
2023-05-03T18:42:16.440Z,14.22
2023-05-03T18:44:43.987Z,14.17
2023-05-03T18:47:14.188Z,14.03
2023-05-03T18:49:41.842Z,13.99
2023-05-03T18:52:10.111Z,13.84
2023-05-03T18:54:38.671Z,13.78
2023-05-03T18:57:07.587Z,13.68
2023-05-03T18:59:42.770Z,13.58
2023-05-03T19:02:17.390Z,13.41
2023-05-03T19:04:46.040Z,13.27
2023-05-03T19:07:16.409Z,13.06
2023-05-03T19:09:45.600Z,12.46
2023-05-03T19:12:15.830Z,12.27
2023-05-03T19:14:44.560Z,12.23
2023-05-03T19:17:12.539Z,12.34
2023-05-03T19:19:40.393Z,12.40
2023-05-03T19:22:08.098Z,12.30
2023-05-03T19:24:37.309Z,12.07
2023-05-03T19:27:07.250Z,12.00
2023-05-03T19:29:36.373Z,11.74
2023-05-03T19:32:04.554Z,11.54
2023-05-03T19:34:32.200Z,11.00
2023-05-03T19:36:59.860Z,10.36
2023-05-03T19:39:28.483Z,9.92
2023-05-03T19:42:03.065Z,9.83
2023-05-03T19:44:33.674Z,9.61
2023-05-03T19:47:04.344Z,9.67
2023-05-03T19:49:32.110Z,9.51
2023-05-03T19:52:02.340Z,9.43
2023-05-03T19:54:31.360Z,9.19
2023-05-03T19:56:58.799Z,9.20
2023-05-03T19:59:29.523Z,9.03
2023-05-03T20:01:57.924Z,9.18
2023-05-03T20:04:27.192Z,9.21
2023-05-03T20:06:55.827Z,9.64
2023-05-03T20:09:23.696Z,9.67
2023-05-03T20:11:59.074Z,9.59
2023-05-03T20:14:29.898Z,9.20
2023-05-03T20:17:00.136Z,8.56
2023-05-03T20:19:28.765Z,8.75
2023-05-03T20:21:56.702Z,8.84
2023-05-03T20:24:24.233Z,8.73
2023-05-03T20:26:53.775Z,8.47
2023-05-03T20:29:21.541Z,8.53
2023-05-03T20:31:52.354Z,8.79
2023-05-03T20:34:20.604Z,8.69
2023-05-03T20:36:48.149Z,8.57
2023-05-03T20:39:15.992Z,8.52
2023-05-03T20:41:43.483Z,8.54
2023-05-03T20:44:10.946Z,8.03
2023-05-03T20:46:39.736Z,7.88
2023-05-03T20:49:09.720Z,7.82
2023-05-03T20:51:37.436Z,7.37
2023-05-03T20:54:04.851Z,7.26
2023-05-03T20:56:33.900Z,7.17
2023-05-03T20:59:01.275Z,7.34
2023-05-03T21:01:28.813Z,7.79
2023-05-03T21:03:57.230Z,7.70
2023-05-03T21:06:24.716Z,7.51
2023-05-03T21:08:53.144Z,7.41
2023-05-03T21:11:20.655Z,7.25
2023-05-03T21:13:48.071Z,7.55
2023-05-03T21:16:15.589Z,7.65
2023-05-03T21:18:43.126Z,7.63
2023-05-03T21:21:10.465Z,7.57
2023-05-03T21:23:37.971Z,7.49
2023-05-03T21:26:05.460Z,7.42
2023-05-03T21:28:32.919Z,7.20
2023-05-03T21:31:02.438Z,7.11
2023-05-03T21:33:29.893Z,6.93
2023-05-03T21:35:57.226Z,6.61
2023-05-03T21:38:30.434Z,6.46
2023-05-03T21:41:06.195Z,6.75
2023-05-03T21:43:35.731Z,6.48
2023-05-03T21:46:06.869Z,6.69
2023-05-03T21:48:37.597Z,6.61
2023-05-03T21:51:05.362Z,6.61
2023-05-03T21:53:32.875Z,6.28
2023-05-03T21:56:00.526Z,6.52
2023-05-03T21:58:27.864Z,6.40
2023-05-03T22:00:55.363Z,6.55
2023-05-03T22:03:23.075Z,6.38
2023-05-03T22:05:51.777Z,6.25
2023-05-03T22:08:19.311Z,6.30
2023-05-03T22:10:46.729Z,6.29
2023-05-03T22:13:14.345Z,6.37
2023-05-03T22:15:42.809Z,6.37
2023-05-03T22:18:11.792Z,6.39
2023-05-03T22:20:39.086Z,6.34
2023-05-03T22:23:06.679Z,6.29
2023-05-03T22:25:34.041Z,6.18
2023-05-03T22:28:01.492Z,6.22
2023-05-03T22:30:30.132Z,6.19
2023-05-03T22:32:58.491Z,6.00
2023-05-03T22:35:26.982Z,6.00
2023-05-03T22:37:54.379Z,5.77
2023-05-03T22:40:21.988Z,5.61
2023-05-03T22:42:49.299Z,5.71
2023-05-03T22:45:18.810Z,5.89
2023-05-03T22:47:46.344Z,5.75
2023-05-03T22:50:15.825Z,5.58
2023-05-03T22:52:43.283Z,5.33
2023-05-03T22:55:11.743Z,5.31
2023-05-03T22:57:40.175Z,5.59
2023-05-03T23:00:10.572Z,5.48
2023-05-03T23:02:38.391Z,5.49
2023-05-03T23:05:06.944Z,5.60
2023-05-03T23:07:34.211Z,5.53
2023-05-03T23:10:06.657Z,5.34
2023-05-03T23:12:34.382Z,5.11
2023-05-03T23:15:02.610Z,5.27
2023-05-03T23:17:29.947Z,5.30
2023-05-03T23:19:57.570Z,5.25
2023-05-03T23:22:24.986Z,5.14
2023-05-03T23:24:52.452Z,4.84
2023-05-03T23:27:19.824Z,4.52
2023-05-03T23:29:48.511Z,4.39
2023-05-03T23:32:16.458Z,4.74
2023-05-03T23:34:45.324Z,4.77
2023-05-03T23:37:12.725Z,4.85
2023-05-03T23:39:46.321Z,4.80
2023-05-03T23:42:14.733Z,4.45
2023-05-03T23:44:54.651Z,4.09
2023-05-03T23:47:24.414Z,4.02
2023-05-03T23:49:54.181Z,4.38
2023-05-03T23:52:22.571Z,4.40
2023-05-03T23:54:51.362Z,4.38
2023-05-03T23:57:18.500Z,4.36
2023-05-03T23:59:46.118Z,4.46
